sensor_id;sensor_type;location;lat;lon;timestamp;temperature;humidity
5276;DHT22;2661;50.786;12.728;2023-12-22T00:01:24;3.90;1.00
5276;DHT22;2661;50.786;12.728;2023-12-22T00:03:51;3.80;1.00
5276;DHT22;2661;50.786;12.728;2023-12-22T00:06:18;3.90;1.00
5276;DHT22;2661;50.786;12.728;2023-12-22T00:08:45;3.90;1.00
5276;DHT22;2661;50.786;12.728;2023-12-22T00:11:12;3.80;1.00
5276;DHT22;2661;50.786;12.728;2023-12-22T00:13:38;3.80;1.00
5276;DHT22;2661;50.786;12.728;2023-12-22T00:16:05;3.80;1.00
5276;DHT22;2661;50.786;12.728;2023-12-22T00:18:32;3.90;1.00
5276;DHT22;2661;50.786;12.728;2023-12-22T00:20:59;3.90;1.00
5276;DHT22;2661;50.786;12.728;2023-12-22T00:23:26;3.90;1.00
5276;DHT22;2661;50.786;12.728;2023-12-22T00:25:52;3.90;1.00
5276;DHT22;2661;50.786;12.728;2023-12-22T00:28:19;4.00;1.00
5276;DHT22;2661;50.786;12.728;2023-12-22T00:30:46;4.00;1.00
5276;DHT22;2661;50.786;12.728;2023-12-22T00:33:13;4.00;1.00
5276;DHT22;2661;50.786;12.728;2023-12-22T00:35:40;4.00;1.00
5276;DHT22;2661;50.786;12.728;2023-12-22T00:38:06;4.10;1.00
5276;DHT22;2661;50.786;12.728;2023-12-22T00:40:33;4.10;58.20
5276;DHT22;2661;50.786;12.728;2023-12-22T00:43:00;4.10;1.00
5276;DHT22;2661;50.786;12.728;2023-12-22T00:45:27;4.00;1.00
5276;DHT22;2661;50.786;12.728;2023-12-22T00:47:53;4.00;1.00
5276;DHT22;2661;50.786;12.728;2023-12-22T00:50:20;4.00;1.00
5276;DHT22;2661;50.786;12.728;2023-12-22T00:52:47;4.00;1.00
5276;DHT22;2661;50.786;12.728;2023-12-22T00:55:14;3.90;1.00
5276;DHT22;2661;50.786;12.728;2023-12-22T00:57:41;3.90;1.00
5276;DHT22;2661;50.786;12.728;2023-12-22T01:00:08;3.90;1.00
5276;DHT22;2661;50.786;12.728;2023-12-22T01:02:38;3.90;1.00
5276;DHT22;2661;50.786;12.728;2023-12-22T01:05:05;3.90;1.00
5276;DHT22;2661;50.786;12.728;2023-12-22T01:07:32;3.90;1.00
5276;DHT22;2661;50.786;12.728;2023-12-22T01:09:59;3.90;18.10
5276;DHT22;2661;50.786;12.728;2023-12-22T01:12:30;4.00;1.00
5276;DHT22;2661;50.786;12.728;2023-12-22T01:14:57;4.00;1.00
5276;DHT22;2661;50.786;12.728;2023-12-22T01:17:24;4.00;1.00
5276;DHT22;2661;50.786;12.728;2023-12-22T01:19:50;4.00;1.00
5276;DHT22;2661;50.786;12.728;2023-12-22T01:22:17;3.90;1.00
5276;DHT22;2661;50.786;12.728;2023-12-22T01:24:44;3.90;1.00
5276;DHT22;2661;50.786;12.728;2023-12-22T01:27:12;4.00;1.00
5276;DHT22;2661;50.786;12.728;2023-12-22T01:29:39;4.00;1.00
5276;DHT22;2661;50.786;12.728;2023-12-22T01:32:06;4.00;1.00
5276;DHT22;2661;50.786;12.728;2023-12-22T01:34:33;4.00;1.00
5276;DHT22;2661;50.786;12.728;2023-12-22T01:36:59;4.00;1.00
5276;DHT22;2661;50.786;12.728;2023-12-22T01:39:28;4.00;1.00
5276;DHT22;2661;50.786;12.728;2023-12-22T01:41:54;4.00;1.00
5276;DHT22;2661;50.786;12.728;2023-12-22T01:44:21;4.00;1.00
5276;DHT22;2661;50.786;12.728;2023-12-22T01:46:48;4.10;1.00
5276;DHT22;2661;50.786;12.728;2023-12-22T01:49:16;4.10;1.00
5276;DHT22;2661;50.786;12.728;2023-12-22T01:51:43;4.20;1.00
5276;DHT22;2661;50.786;12.728;2023-12-22T01:54:10;4.10;1.00
5276;DHT22;2661;50.786;12.728;2023-12-22T01:56:37;4.10;1.00
5276;DHT22;2661;50.786;12.728;2023-12-22T01:59:04;4.20;1.00
5276;DHT22;2661;50.786;12.728;2023-12-22T02:01:31;4.20;1.00
5276;DHT22;2661;50.786;12.728;2023-12-22T02:03:58;4.10;1.00
5276;DHT22;2661;50.786;12.728;2023-12-22T02:06:25;4.10;1.00
5276;DHT22;2661;50.786;12.728;2023-12-22T02:08:52;4.10;1.00
5276;DHT22;2661;50.786;12.728;2023-12-22T02:11:19;4.00;1.00
5276;DHT22;2661;50.786;12.728;2023-12-22T02:13:46;4.00;1.00
5276;DHT22;2661;50.786;12.728;2023-12-22T02:18:46;3.90;1.00
5276;DHT22;2661;50.786;12.728;2023-12-22T02:21:13;3.90;1.00
5276;DHT22;2661;50.786;12.728;2023-12-22T02:23:40;3.90;1.00
5276;DHT22;2661;50.786;12.728;2023-12-22T02:26:12;3.90;1.00
5276;DHT22;2661;50.786;12.728;2023-12-22T02:28:44;3.90;1.00
5276;DHT22;2661;50.786;12.728;2023-12-22T02:31:16;3.90;1.00
5276;DHT22;2661;50.786;12.728;2023-12-22T02:33:43;4.00;1.00
5276;DHT22;2661;50.786;12.728;2023-12-22T02:36:10;4.00;1.00
5276;DHT22;2661;50.786;12.728;2023-12-22T02:38:38;4.00;1.00
5276;DHT22;2661;50.786;12.728;2023-12-22T02:41:05;4.00;1.00
5276;DHT22;2661;50.786;12.728;2023-12-22T02:43:32;4.10;1.00
5276;DHT22;2661;50.786;12.728;2023-12-22T02:45:59;4.10;1.00
5276;DHT22;2661;50.786;12.728;2023-12-22T02:48:26;4.10;1.00
5276;DHT22;2661;50.786;12.728;2023-12-22T02:50:53;4.10;1.00
5276;DHT22;2661;50.786;12.728;2023-12-22T02:53:20;4.10;1.00
5276;DHT22;2661;50.786;12.728;2023-12-22T02:55:46;4.20;1.00
5276;DHT22;2661;50.786;12.728;2023-12-22T02:58:13;4.20;1.00
5276;DHT22;2661;50.786;12.728;2023-12-22T03:00:40;4.20;1.00
5276;DHT22;2661;50.786;12.728;2023-12-22T03:03:07;4.20;1.00
5276;DHT22;2661;50.786;12.728;2023-12-22T03:05:34;4.30;1.00
5276;DHT22;2661;50.786;12.728;2023-12-22T03:08:00;4.40;1.00
5276;DHT22;2661;50.786;12.728;2023-12-22T03:10:28;4.30;1.00
5276;DHT22;2661;50.786;12.728;2023-12-22T03:12:55;4.40;1.00
5276;DHT22;2661;50.786;12.728;2023-12-22T03:15:22;4.30;1.00
5276;DHT22;2661;50.786;12.728;2023-12-22T03:17:48;4.30;1.00
5276;DHT22;2661;50.786;12.728;2023-12-22T03:20:15;4.30;1.00
5276;DHT22;2661;50.786;12.728;2023-12-22T03:22:42;4.30;1.00
5276;DHT22;2661;50.786;12.728;2023-12-22T03:25:08;4.30;1.00
5276;DHT22;2661;50.786;12.728;2023-12-22T03:27:35;4.30;1.00
5276;DHT22;2661;50.786;12.728;2023-12-22T03:30:02;4.30;1.00
5276;DHT22;2661;50.786;12.728;2023-12-22T03:32:30;4.30;1.00
5276;DHT22;2661;50.786;12.728;2023-12-22T03:34:56;4.30;1.00
5276;DHT22;2661;50.786;12.728;2023-12-22T03:37:23;4.30;1.00
5276;DHT22;2661;50.786;12.728;2023-12-22T03:39:50;4.30;1.00
5276;DHT22;2661;50.786;12.728;2023-12-22T03:42:16;4.30;1.00
5276;DHT22;2661;50.786;12.728;2023-12-22T03:44:43;4.30;1.00
5276;DHT22;2661;50.786;12.728;2023-12-22T03:47:10;4.40;1.00
5276;DHT22;2661;50.786;12.728;2023-12-22T03:49:36;4.30;1.00
5276;DHT22;2661;50.786;12.728;2023-12-22T03:52:03;4.30;1.00
5276;DHT22;2661;50.786;12.728;2023-12-22T03:54:29;4.20;1.00
5276;DHT22;2661;50.786;12.728;2023-12-22T03:56:56;4.10;1.00
5276;DHT22;2661;50.786;12.728;2023-12-22T03:59:22;3.90;1.00
5276;DHT22;2661;50.786;12.728;2023-12-22T04:01:52;3.70;1.00
5276;DHT22;2661;50.786;12.728;2023-12-22T04:04:19;3.50;1.00
5276;DHT22;2661;50.786;12.728;2023-12-22T04:06:49;3.40;1.00
5276;DHT22;2661;50.786;12.728;2023-12-22T04:09:15;3.40;1.00
5276;DHT22;2661;50.786;12.728;2023-12-22T04:11:42;3.40;1.00
5276;DHT22;2661;50.786;12.728;2023-12-22T04:14:08;3.40;1.00
5276;DHT22;2661;50.786;12.728;2023-12-22T04:16:38;3.40;1.00
5276;DHT22;2661;50.786;12.728;2023-12-22T04:19:05;3.40;1.00
5276;DHT22;2661;50.786;12.728;2023-12-22T04:21:36;3.50;1.00
5276;DHT22;2661;50.786;12.728;2023-12-22T04:24:03;3.50;1.00
5276;DHT22;2661;50.786;12.728;2023-12-22T04:26:29;3.60;1.00
5276;DHT22;2661;50.786;12.728;2023-12-22T04:28:56;3.60;1.00
5276;DHT22;2661;50.786;12.728;2023-12-22T04:31:22;3.60;1.00
5276;DHT22;2661;50.786;12.728;2023-12-22T04:33:49;3.60;1.00
5276;DHT22;2661;50.786;12.728;2023-12-22T04:36:16;3.50;1.00
5276;DHT22;2661;50.786;12.728;2023-12-22T04:38:42;3.50;1.00
5276;DHT22;2661;50.786;12.728;2023-12-22T04:41:09;3.50;1.00
5276;DHT22;2661;50.786;12.728;2023-12-22T04:43:36;3.50;1.00
5276;DHT22;2661;50.786;12.728;2023-12-22T04:46:02;3.60;1.00
5276;DHT22;2661;50.786;12.728;2023-12-22T04:48:29;3.50;1.00
5276;DHT22;2661;50.786;12.728;2023-12-22T04:50:56;3.50;1.00
5276;DHT22;2661;50.786;12.728;2023-12-22T04:53:22;3.50;1.00
5276;DHT22;2661;50.786;12.728;2023-12-22T04:55:49;3.50;1.00
5276;DHT22;2661;50.786;12.728;2023-12-22T04:58:16;3.50;1.00
5276;DHT22;2661;50.786;12.728;2023-12-22T05:00:42;3.40;1.00
5276;DHT22;2661;50.786;12.728;2023-12-22T05:03:09;3.40;1.00
5276;DHT22;2661;50.786;12.728;2023-12-22T05:05:36;3.40;1.00
5276;DHT22;2661;50.786;12.728;2023-12-22T05:08:02;3.30;1.00
5276;DHT22;2661;50.786;12.728;2023-12-22T05:10:29;3.20;1.00
5276;DHT22;2661;50.786;12.728;2023-12-22T05:12:56;3.20;1.00
5276;DHT22;2661;50.786;12.728;2023-12-22T05:15:23;3.20;1.00
5276;DHT22;2661;50.786;12.728;2023-12-22T05:17:49;3.20;1.00
5276;DHT22;2661;50.786;12.728;2023-12-22T05:20:16;3.20;1.00
5276;DHT22;2661;50.786;12.728;2023-12-22T05:22:43;3.20;1.00
5276;DHT22;2661;50.786;12.728;2023-12-22T05:25:10;3.20;1.00
5276;DHT22;2661;50.786;12.728;2023-12-22T05:27:39;3.20;1.00
5276;DHT22;2661;50.786;12.728;2023-12-22T05:30:08;3.30;1.00
5276;DHT22;2661;50.786;12.728;2023-12-22T05:32:34;3.30;1.00
5276;DHT22;2661;50.786;12.728;2023-12-22T05:35:01;3.30;1.00
5276;DHT22;2661;50.786;12.728;2023-12-22T05:37:28;3.20;1.00
5276;DHT22;2661;50.786;12.728;2023-12-22T05:39:54;3.20;1.00
5276;DHT22;2661;50.786;12.728;2023-12-22T05:42:22;3.20;1.00
5276;DHT22;2661;50.786;12.728;2023-12-22T05:44:48;3.20;1.00
5276;DHT22;2661;50.786;12.728;2023-12-22T05:47:16;3.20;1.00
5276;DHT22;2661;50.786;12.728;2023-12-22T05:49:43;3.20;1.00
5276;DHT22;2661;50.786;12.728;2023-12-22T05:52:11;3.10;1.00
5276;DHT22;2661;50.786;12.728;2023-12-22T05:54:38;3.10;1.00
5276;DHT22;2661;50.786;12.728;2023-12-22T05:57:05;3.10;1.00
5276;DHT22;2661;50.786;12.728;2023-12-22T05:59:38;3.10;1.00
5276;DHT22;2661;50.786;12.728;2023-12-22T06:02:04;3.10;1.00
5276;DHT22;2661;50.786;12.728;2023-12-22T06:04:31;3.10;1.00
5276;DHT22;2661;50.786;12.728;2023-12-22T06:06:57;3.10;1.00
5276;DHT22;2661;50.786;12.728;2023-12-22T06:09:24;3.10;1.00
5276;DHT22;2661;50.786;12.728;2023-12-22T06:11:51;3.10;1.00
5276;DHT22;2661;50.786;12.728;2023-12-22T06:14:17;3.10;1.00
5276;DHT22;2661;50.786;12.728;2023-12-22T06:16:44;3.10;1.00
5276;DHT22;2661;50.786;12.728;2023-12-22T06:19:11;3.00;1.00
5276;DHT22;2661;50.786;12.728;2023-12-22T06:21:39;3.10;1.00
5276;DHT22;2661;50.786;12.728;2023-12-22T06:24:06;3.10;1.00
5276;DHT22;2661;50.786;12.728;2023-12-22T06:26:33;3.10;1.00
5276;DHT22;2661;50.786;12.728;2023-12-22T06:28:59;3.10;1.00
5276;DHT22;2661;50.786;12.728;2023-12-22T06:31:26;3.10;1.00
5276;DHT22;2661;50.786;12.728;2023-12-22T06:33:53;3.10;1.00
5276;DHT22;2661;50.786;12.728;2023-12-22T06:36:20;3.10;1.00
5276;DHT22;2661;50.786;12.728;2023-12-22T06:38:47;3.10;1.00
5276;DHT22;2661;50.786;12.728;2023-12-22T06:41:24;3.10;1.00
5276;DHT22;2661;50.786;12.728;2023-12-22T06:43:54;3.10;1.00
5276;DHT22;2661;50.786;12.728;2023-12-22T06:46:21;3.10;1.00
5276;DHT22;2661;50.786;12.728;2023-12-22T06:48:55;3.20;1.00
5276;DHT22;2661;50.786;12.728;2023-12-22T06:51:26;3.20;1.00
5276;DHT22;2661;50.786;12.728;2023-12-22T06:53:53;3.20;1.00
5276;DHT22;2661;50.786;12.728;2023-12-22T06:56:20;3.10;1.00
5276;DHT22;2661;50.786;12.728;2023-12-22T06:58:47;3.10;1.00
5276;DHT22;2661;50.786;12.728;2023-12-22T07:01:18;3.10;1.00
5276;DHT22;2661;50.786;12.728;2023-12-22T07:03:47;3.00;1.00
5276;DHT22;2661;50.786;12.728;2023-12-22T07:06:18;3.10;1.00
5276;DHT22;2661;50.786;12.728;2023-12-22T07:08:44;3.20;1.00
5276;DHT22;2661;50.786;12.728;2023-12-22T07:11:11;3.30;1.00
5276;DHT22;2661;50.786;12.728;2023-12-22T07:13:37;3.30;1.00
5276;DHT22;2661;50.786;12.728;2023-12-22T07:16:04;3.30;1.00
5276;DHT22;2661;50.786;12.728;2023-12-22T07:18:31;3.30;1.00
5276;DHT22;2661;50.786;12.728;2023-12-22T07:20:59;3.30;1.00
5276;DHT22;2661;50.786;12.728;2023-12-22T07:23:26;3.00;1.00
5276;DHT22;2661;50.786;12.728;2023-12-22T07:25:53;2.70;1.00
5276;DHT22;2661;50.786;12.728;2023-12-22T07:28:20;2.40;1.00
5276;DHT22;2661;50.786;12.728;2023-12-22T07:30:47;2.30;99.90
5276;DHT22;2661;50.786;12.728;2023-12-22T07:33:14;2.20;99.90
5276;DHT22;2661;50.786;12.728;2023-12-22T07:35:41;2.20;1.00
5276;DHT22;2661;50.786;12.728;2023-12-22T07:38:10;2.10;1.00
5276;DHT22;2661;50.786;12.728;2023-12-22T07:40:37;2.10;99.90
5276;DHT22;2661;50.786;12.728;2023-12-22T07:43:05;2.00;99.90
5276;DHT22;2661;50.786;12.728;2023-12-22T07:45:31;1.90;99.90
5276;DHT22;2661;50.786;12.728;2023-12-22T07:47:58;1.90;1.00
5276;DHT22;2661;50.786;12.728;2023-12-22T07:50:26;1.90;1.00
5276;DHT22;2661;50.786;12.728;2023-12-22T07:52:54;1.90;99.90
5276;DHT22;2661;50.786;12.728;2023-12-22T07:55:20;1.80;1.00
5276;DHT22;2661;50.786;12.728;2023-12-22T07:57:47;1.90;25.10
5276;DHT22;2661;50.786;12.728;2023-12-22T08:00:14;1.90;55.20
5276;DHT22;2661;50.786;12.728;2023-12-22T08:02:41;1.90;1.00
5276;DHT22;2661;50.786;12.728;2023-12-22T08:05:08;1.90;74.30
5276;DHT22;2661;50.786;12.728;2023-12-22T08:07:35;1.90;99.90
5276;DHT22;2661;50.786;12.728;2023-12-22T08:10:02;1.90;1.00
5276;DHT22;2661;50.786;12.728;2023-12-22T08:12:28;2.00;1.00
5276;DHT22;2661;50.786;12.728;2023-12-22T08:14:55;2.00;1.00
5276;DHT22;2661;50.786;12.728;2023-12-22T08:17:22;2.00;1.00
5276;DHT22;2661;50.786;12.728;2023-12-22T08:19:49;2.00;1.00
5276;DHT22;2661;50.786;12.728;2023-12-22T08:22:18;2.10;1.00
5276;DHT22;2661;50.786;12.728;2023-12-22T08:24:46;2.10;1.00
5276;DHT22;2661;50.786;12.728;2023-12-22T08:27:14;2.20;99.90
5276;DHT22;2661;50.786;12.728;2023-12-22T08:29:41;2.30;54.00
5276;DHT22;2661;50.786;12.728;2023-12-22T08:32:07;2.30;99.90
5276;DHT22;2661;50.786;12.728;2023-12-22T08:34:34;2.40;1.00
5276;DHT22;2661;50.786;12.728;2023-12-22T08:37:01;2.50;1.00
5276;DHT22;2661;50.786;12.728;2023-12-22T08:39:27;2.50;1.00
5276;DHT22;2661;50.786;12.728;2023-12-22T08:41:54;2.60;1.00
5276;DHT22;2661;50.786;12.728;2023-12-22T08:44:21;2.50;1.00
5276;DHT22;2661;50.786;12.728;2023-12-22T08:46:48;2.50;1.00
5276;DHT22;2661;50.786;12.728;2023-12-22T08:49:14;2.30;1.00
5276;DHT22;2661;50.786;12.728;2023-12-22T08:51:41;2.20;1.00
5276;DHT22;2661;50.786;12.728;2023-12-22T08:54:09;1.90;1.00
5276;DHT22;2661;50.786;12.728;2023-12-22T08:56:36;1.60;99.90
5276;DHT22;2661;50.786;12.728;2023-12-22T08:59:02;1.40;1.00
5276;DHT22;2661;50.786;12.728;2023-12-22T09:01:29;1.30;99.90
5276;DHT22;2661;50.786;12.728;2023-12-22T09:04:01;1.20;99.90
5276;DHT22;2661;50.786;12.728;2023-12-22T09:06:28;1.20;1.00
5276;DHT22;2661;50.786;12.728;2023-12-22T09:08:54;1.40;27.70
5276;DHT22;2661;50.786;12.728;2023-12-22T09:11:21;1.10;99.90
5276;DHT22;2661;50.786;12.728;2023-12-22T09:13:48;1.10;1.00
5276;DHT22;2661;50.786;12.728;2023-12-22T09:16:19;1.10;1.00
5276;DHT22;2661;50.786;12.728;2023-12-22T09:18:46;1.10;1.00
5276;DHT22;2661;50.786;12.728;2023-12-22T09:21:13;1.20;1.00
5276;DHT22;2661;50.786;12.728;2023-12-22T09:23:40;1.20;1.00
5276;DHT22;2661;50.786;12.728;2023-12-22T09:26:10;1.20;1.00
5276;DHT22;2661;50.786;12.728;2023-12-22T09:28:37;1.10;1.00
5276;DHT22;2661;50.786;12.728;2023-12-22T09:31:04;1.10;1.00
5276;DHT22;2661;50.786;12.728;2023-12-22T09:33:32;1.10;1.00
5276;DHT22;2661;50.786;12.728;2023-12-22T09:35:58;1.10;15.00
5276;DHT22;2661;50.786;12.728;2023-12-22T09:38:25;1.10;90.10
5276;DHT22;2661;50.786;12.728;2023-12-22T09:40:51;1.10;99.90
5276;DHT22;2661;50.786;12.728;2023-12-22T09:43:18;1.10;99.90
5276;DHT22;2661;50.786;12.728;2023-12-22T09:45:45;1.10;99.90
5276;DHT22;2661;50.786;12.728;2023-12-22T09:48:12;1.20;99.90
5276;DHT22;2661;50.786;12.728;2023-12-22T09:50:46;1.10;99.90
5276;DHT22;2661;50.786;12.728;2023-12-22T09:53:13;1.20;99.90
5276;DHT22;2661;50.786;12.728;2023-12-22T09:55:42;1.20;99.90
5276;DHT22;2661;50.786;12.728;2023-12-22T09:58:09;1.30;99.90
5276;DHT22;2661;50.786;12.728;2023-12-22T10:00:36;1.30;99.90
5276;DHT22;2661;50.786;12.728;2023-12-22T10:03:05;1.40;99.90
5276;DHT22;2661;50.786;12.728;2023-12-22T10:05:32;1.50;99.90
5276;DHT22;2661;50.786;12.728;2023-12-22T10:07:59;1.50;99.90
5276;DHT22;2661;50.786;12.728;2023-12-22T10:10:28;1.60;99.90
5276;DHT22;2661;50.786;12.728;2023-12-22T10:12:56;1.70;1.00
5276;DHT22;2661;50.786;12.728;2023-12-22T10:15:22;1.80;99.90
5276;DHT22;2661;50.786;12.728;2023-12-22T10:17:52;1.80;99.90
5276;DHT22;2661;50.786;12.728;2023-12-22T10:20:19;1.80;99.90
5276;DHT22;2661;50.786;12.728;2023-12-22T10:22:46;1.80;99.90
5276;DHT22;2661;50.786;12.728;2023-12-22T10:25:19;1.80;99.90
5276;DHT22;2661;50.786;12.728;2023-12-22T10:27:46;1.80;99.90
5276;DHT22;2661;50.786;12.728;2023-12-22T10:30:13;1.80;99.90
5276;DHT22;2661;50.786;12.728;2023-12-22T10:32:41;1.90;99.90
5276;DHT22;2661;50.786;12.728;2023-12-22T10:35:10;2.00;1.00
5276;DHT22;2661;50.786;12.728;2023-12-22T10:37:38;2.10;46.20
5276;DHT22;2661;50.786;12.728;2023-12-22T10:40:05;2.30;99.90
5276;DHT22;2661;50.786;12.728;2023-12-22T10:42:32;2.20;1.00
5276;DHT22;2661;50.786;12.728;2023-12-22T10:44:59;2.30;1.00
5276;DHT22;2661;50.786;12.728;2023-12-22T10:47:25;2.30;1.00
5276;DHT22;2661;50.786;12.728;2023-12-22T10:49:52;2.40;1.00
5276;DHT22;2661;50.786;12.728;2023-12-22T10:52:19;2.50;99.90
5276;DHT22;2661;50.786;12.728;2023-12-22T10:54:48;2.50;99.90
5276;DHT22;2661;50.786;12.728;2023-12-22T10:57:17;2.60;99.90
5276;DHT22;2661;50.786;12.728;2023-12-22T10:59:44;2.70;90.90
5276;DHT22;2661;50.786;12.728;2023-12-22T11:02:26;2.70;97.00
5276;DHT22;2661;50.786;12.728;2023-12-22T11:05:01;2.80;99.90
5276;DHT22;2661;50.786;12.728;2023-12-22T11:07:42;2.80;43.40
5276;DHT22;2661;50.786;12.728;2023-12-22T11:10:10;2.90;1.00
5276;DHT22;2661;50.786;12.728;2023-12-22T11:12:38;2.90;1.00
5276;DHT22;2661;50.786;12.728;2023-12-22T11:15:07;3.00;1.00
5276;DHT22;2661;50.786;12.728;2023-12-22T11:17:36;3.00;1.00
5276;DHT22;2661;50.786;12.728;2023-12-22T11:20:12;3.00;1.00
5276;DHT22;2661;50.786;12.728;2023-12-22T11:22:39;3.00;1.00
5276;DHT22;2661;50.786;12.728;2023-12-22T11:25:06;3.10;1.00
5276;DHT22;2661;50.786;12.728;2023-12-22T11:27:33;3.10;1.00
5276;DHT22;2661;50.786;12.728;2023-12-22T11:30:01;3.10;1.00
5276;DHT22;2661;50.786;12.728;2023-12-22T11:32:27;3.10;1.00
5276;DHT22;2661;50.786;12.728;2023-12-22T11:34:55;3.20;1.00
5276;DHT22;2661;50.786;12.728;2023-12-22T11:37:23;3.20;1.00
5276;DHT22;2661;50.786;12.728;2023-12-22T11:39:49;3.20;1.00
5276;DHT22;2661;50.786;12.728;2023-12-22T11:42:20;3.30;1.00
5276;DHT22;2661;50.786;12.728;2023-12-22T11:44:47;3.30;1.00
5276;DHT22;2661;50.786;12.728;2023-12-22T11:47:14;3.30;1.00
5276;DHT22;2661;50.786;12.728;2023-12-22T11:49:41;3.40;1.00
5276;DHT22;2661;50.786;12.728;2023-12-22T11:52:14;3.40;1.00
5276;DHT22;2661;50.786;12.728;2023-12-22T11:54:51;3.40;1.00
5276;DHT22;2661;50.786;12.728;2023-12-22T12:02:33;3.50;1.00
5276;DHT22;2661;50.786;12.728;2023-12-22T12:05:02;3.50;1.00
5276;DHT22;2661;50.786;12.728;2023-12-22T12:07:36;3.50;1.00
5276;DHT22;2661;50.786;12.728;2023-12-22T12:10:03;3.60;1.00
5276;DHT22;2661;50.786;12.728;2023-12-22T12:12:29;3.60;1.00
5276;DHT22;2661;50.786;12.728;2023-12-22T12:14:57;3.60;1.00
5276;DHT22;2661;50.786;12.728;2023-12-22T12:17:24;3.60;1.00
5276;DHT22;2661;50.786;12.728;2023-12-22T12:19:51;3.60;1.00
5276;DHT22;2661;50.786;12.728;2023-12-22T12:22:18;3.60;1.00
5276;DHT22;2661;50.786;12.728;2023-12-22T12:24:45;3.70;1.00
5276;DHT22;2661;50.786;12.728;2023-12-22T12:27:11;3.70;1.00
5276;DHT22;2661;50.786;12.728;2023-12-22T12:29:43;3.70;1.00
5276;DHT22;2661;50.786;12.728;2023-12-22T12:32:10;3.70;1.00
5276;DHT22;2661;50.786;12.728;2023-12-22T12:34:42;3.70;1.00
5276;DHT22;2661;50.786;12.728;2023-12-22T12:37:09;3.70;1.00
5276;DHT22;2661;50.786;12.728;2023-12-22T12:39:36;3.70;1.00
5276;DHT22;2661;50.786;12.728;2023-12-22T12:42:06;3.60;1.00
5276;DHT22;2661;50.786;12.728;2023-12-22T12:44:34;3.70;1.00
5276;DHT22;2661;50.786;12.728;2023-12-22T12:47:11;3.70;1.00
5276;DHT22;2661;50.786;12.728;2023-12-22T12:49:37;3.70;1.00
5276;DHT22;2661;50.786;12.728;2023-12-22T12:52:04;3.80;1.00
5276;DHT22;2661;50.786;12.728;2023-12-22T12:54:32;3.80;1.00
5276;DHT22;2661;50.786;12.728;2023-12-22T12:56:59;3.80;1.00
5276;DHT22;2661;50.786;12.728;2023-12-22T12:59:25;3.80;1.00
5276;DHT22;2661;50.786;12.728;2023-12-22T13:01:52;3.80;1.00
5276;DHT22;2661;50.786;12.728;2023-12-22T13:04:20;3.80;1.00
5276;DHT22;2661;50.786;12.728;2023-12-22T13:06:47;3.80;1.00
5276;DHT22;2661;50.786;12.728;2023-12-22T13:09:13;3.80;1.00
5276;DHT22;2661;50.786;12.728;2023-12-22T13:11:41;3.90;1.00
5276;DHT22;2661;50.786;12.728;2023-12-22T13:14:09;3.90;1.00
5276;DHT22;2661;50.786;12.728;2023-12-22T13:16:36;4.00;1.00
5276;DHT22;2661;50.786;12.728;2023-12-22T13:19:03;3.90;1.00
5276;DHT22;2661;50.786;12.728;2023-12-22T13:21:30;4.00;1.00
5276;DHT22;2661;50.786;12.728;2023-12-22T13:24:13;4.00;1.00
5276;DHT22;2661;50.786;12.728;2023-12-22T13:26:40;4.00;1.00
5276;DHT22;2661;50.786;12.728;2023-12-22T13:29:06;4.10;1.00
5276;DHT22;2661;50.786;12.728;2023-12-22T13:31:40;4.10;1.00
5276;DHT22;2661;50.786;12.728;2023-12-22T13:34:10;4.10;1.00
5276;DHT22;2661;50.786;12.728;2023-12-22T13:36:36;4.10;1.00
5276;DHT22;2661;50.786;12.728;2023-12-22T13:39:04;4.10;1.00
5276;DHT22;2661;50.786;12.728;2023-12-22T13:41:32;4.10;1.00
5276;DHT22;2661;50.786;12.728;2023-12-22T13:44:01;4.10;1.00
5276;DHT22;2661;50.786;12.728;2023-12-22T13:46:28;4.10;1.00
5276;DHT22;2661;50.786;12.728;2023-12-22T13:48:55;4.10;1.00
5276;DHT22;2661;50.786;12.728;2023-12-22T13:51:22;4.10;1.00
5276;DHT22;2661;50.786;12.728;2023-12-22T13:53:49;4.20;1.00
5276;DHT22;2661;50.786;12.728;2023-12-22T13:56:16;4.20;1.00
5276;DHT22;2661;50.786;12.728;2023-12-22T13:58:46;4.20;1.00
5276;DHT22;2661;50.786;12.728;2023-12-22T14:01:16;4.30;1.00
5276;DHT22;2661;50.786;12.728;2023-12-22T14:03:43;4.30;1.00
5276;DHT22;2661;50.786;12.728;2023-12-22T14:06:11;4.30;1.00
5276;DHT22;2661;50.786;12.728;2023-12-22T14:08:39;4.40;1.00
5276;DHT22;2661;50.786;12.728;2023-12-22T14:11:05;4.40;1.00
5276;DHT22;2661;50.786;12.728;2023-12-22T14:13:32;4.40;1.00
5276;DHT22;2661;50.786;12.728;2023-12-22T14:16:00;4.40;1.00
5276;DHT22;2661;50.786;12.728;2023-12-22T14:18:27;4.40;1.00
5276;DHT22;2661;50.786;12.728;2023-12-22T14:20:53;4.40;1.00
5276;DHT22;2661;50.786;12.728;2023-12-22T14:23:20;4.40;1.00
5276;DHT22;2661;50.786;12.728;2023-12-22T14:25:48;4.50;1.00
5276;DHT22;2661;50.786;12.728;2023-12-22T14:28:14;4.40;1.00
5276;DHT22;2661;50.786;12.728;2023-12-22T14:30:41;4.50;1.00
5276;DHT22;2661;50.786;12.728;2023-12-22T14:33:08;4.50;1.00
5276;DHT22;2661;50.786;12.728;2023-12-22T14:35:35;4.50;1.00
5276;DHT22;2661;50.786;12.728;2023-12-22T14:38:02;4.50;1.00
5276;DHT22;2661;50.786;12.728;2023-12-22T14:40:28;4.50;1.00
5276;DHT22;2661;50.786;12.728;2023-12-22T14:42:55;4.50;1.00
5276;DHT22;2661;50.786;12.728;2023-12-22T14:45:22;4.50;1.00
5276;DHT22;2661;50.786;12.728;2023-12-22T14:47:49;4.50;1.00
5276;DHT22;2661;50.786;12.728;2023-12-22T14:50:16;4.50;1.00
5276;DHT22;2661;50.786;12.728;2023-12-22T14:52:44;4.50;1.00
5276;DHT22;2661;50.786;12.728;2023-12-22T14:55:11;4.60;1.00
5276;DHT22;2661;50.786;12.728;2023-12-22T14:57:38;4.50;1.00
5276;DHT22;2661;50.786;12.728;2023-12-22T15:00:04;4.60;1.00
5276;DHT22;2661;50.786;12.728;2023-12-22T15:02:32;4.60;1.00
5276;DHT22;2661;50.786;12.728;2023-12-22T15:04:59;4.60;1.00
5276;DHT22;2661;50.786;12.728;2023-12-22T15:07:27;4.60;1.00
5276;DHT22;2661;50.786;12.728;2023-12-22T15:09:54;4.60;1.00
5276;DHT22;2661;50.786;12.728;2023-12-22T15:12:20;4.60;1.00
5276;DHT22;2661;50.786;12.728;2023-12-22T15:14:47;4.60;1.00
5276;DHT22;2661;50.786;12.728;2023-12-22T15:17:14;4.60;1.00
5276;DHT22;2661;50.786;12.728;2023-12-22T15:19:43;4.60;1.00
5276;DHT22;2661;50.786;12.728;2023-12-22T15:22:10;4.70;1.00
5276;DHT22;2661;50.786;12.728;2023-12-22T15:24:37;4.60;1.00
5276;DHT22;2661;50.786;12.728;2023-12-22T15:27:06;4.60;1.00
5276;DHT22;2661;50.786;12.728;2023-12-22T15:29:33;4.70;1.00
5276;DHT22;2661;50.786;12.728;2023-12-22T15:32:00;4.60;1.00
5276;DHT22;2661;50.786;12.728;2023-12-22T15:34:27;4.70;1.00
5276;DHT22;2661;50.786;12.728;2023-12-22T15:36:54;4.60;1.00
5276;DHT22;2661;50.786;12.728;2023-12-22T15:39:21;4.60;1.00
5276;DHT22;2661;50.786;12.728;2023-12-22T15:41:47;4.60;1.00
5276;DHT22;2661;50.786;12.728;2023-12-22T15:44:14;4.60;1.00
5276;DHT22;2661;50.786;12.728;2023-12-22T15:46:41;4.60;1.00
5276;DHT22;2661;50.786;12.728;2023-12-22T15:49:08;4.70;1.00
5276;DHT22;2661;50.786;12.728;2023-12-22T15:51:35;4.70;1.00
5276;DHT22;2661;50.786;12.728;2023-12-22T15:54:01;4.70;1.00
5276;DHT22;2661;50.786;12.728;2023-12-22T15:56:29;4.70;1.00
5276;DHT22;2661;50.786;12.728;2023-12-22T15:58:55;4.70;1.00
5276;DHT22;2661;50.786;12.728;2023-12-22T16:01:22;4.70;1.00
5276;DHT22;2661;50.786;12.728;2023-12-22T16:03:49;4.70;1.00
5276;DHT22;2661;50.786;12.728;2023-12-22T16:06:18;4.70;1.00
5276;DHT22;2661;50.786;12.728;2023-12-22T16:08:46;4.80;1.00
5276;DHT22;2661;50.786;12.728;2023-12-22T16:11:12;4.70;1.00
5276;DHT22;2661;50.786;12.728;2023-12-22T16:13:39;4.70;1.00
5276;DHT22;2661;50.786;12.728;2023-12-22T16:16:16;4.60;1.00
5276;DHT22;2661;50.786;12.728;2023-12-22T16:18:43;4.60;1.00
5276;DHT22;2661;50.786;12.728;2023-12-22T16:21:09;4.40;1.00
5276;DHT22;2661;50.786;12.728;2023-12-22T16:23:36;4.30;1.00